sensor_id;sensor_type;location;lat;lon;timestamp;P1;durP1;ratioP1;P2;durP2;ratioP2
13319;SDS011;59599;47.608;12.190;2023-05-10T04:02:11;2.40;;;1.23;;
13319;SDS011;59599;47.608;12.190;2023-05-10T04:04:37;1.40;;;1.30;;
13319;SDS011;59599;47.608;12.190;2023-05-10T04:07:03;2.23;;;1.60;;
13319;SDS011;59599;47.608;12.190;2023-05-10T04:09:29;2.33;;;1.40;;
13319;SDS011;59599;47.608;12.190;2023-05-10T04:11:54;1.63;;;1.53;;
13319;SDS011;59599;47.608;12.190;2023-05-10T04:14:20;1.20;;;0.90;;
13319;SDS011;59599;47.608;12.190;2023-05-10T04:16:46;1.10;;;1.00;;
13319;SDS011;59599;47.608;12.190;2023-05-10T04:19:12;1.23;;;0.80;;
13319;SDS011;59599;47.608;12.190;2023-05-10T04:21:38;0.63;;;0.63;;
13319;SDS011;59599;47.608;12.190;2023-05-10T04:24:04;1.37;;;0.70;;
13319;SDS011;59599;47.608;12.190;2023-05-10T04:26:30;1.60;;;0.77;;
13319;SDS011;59599;47.608;12.190;2023-05-10T04:28:56;0.87;;;0.63;;
13319;SDS011;59599;47.608;12.190;2023-05-10T04:31:22;2.13;;;0.80;;
13319;SDS011;59599;47.608;12.190;2023-05-10T04:33:48;0.97;;;0.57;;
13319;SDS011;59599;47.608;12.190;2023-05-10T04:36:14;0.60;;;0.60;;
13319;SDS011;59599;47.608;12.190;2023-05-10T04:38:40;0.60;;;0.60;;
13319;SDS011;59599;47.608;12.190;2023-05-10T04:41:07;2.40;;;0.60;;
13319;SDS011;59599;47.608;12.190;2023-05-10T04:43:34;1.10;;;0.80;;
13319;SDS011;59599;47.608;12.190;2023-05-10T04:46:01;0.97;;;0.77;;
13319;SDS011;59599;47.608;12.190;2023-05-10T04:48:27;0.80;;;0.80;;
13319;SDS011;59599;47.608;12.190;2023-05-10T04:50:53;1.57;;;0.80;;
13319;SDS011;59599;47.608;12.190;2023-05-10T04:53:18;2.17;;;0.63;;
13319;SDS011;59599;47.608;12.190;2023-05-10T04:55:44;1.37;;;0.90;;
13319;SDS011;59599;47.608;12.190;2023-05-10T04:58:11;1.63;;;0.60;;
13319;SDS011;59599;47.608;12.190;2023-05-10T05:00:37;3.33;;;1.00;;
13319;SDS011;59599;47.608;12.190;2023-05-10T05:03:03;2.00;;;1.10;;
13319;SDS011;59599;47.608;12.190;2023-05-10T05:05:30;0.87;;;0.80;;
13319;SDS011;59599;47.608;12.190;2023-05-10T05:07:55;1.10;;;1.00;;
13319;SDS011;59599;47.608;12.190;2023-05-10T05:10:21;1.43;;;1.07;;
13319;SDS011;59599;47.608;12.190;2023-05-10T05:12:47;1.97;;;1.40;;
13319;SDS011;59599;47.608;12.190;2023-05-10T05:15:13;2.27;;;1.20;;
13319;SDS011;59599;47.608;12.190;2023-05-10T05:17:41;1.10;;;1.00;;
13319;SDS011;59599;47.608;12.190;2023-05-10T05:20:07;2.07;;;1.00;;
13319;SDS011;59599;47.608;12.190;2023-05-10T05:22:33;1.37;;;0.70;;
13319;SDS011;59599;47.608;12.190;2023-05-10T05:24:59;1.30;;;0.90;;
13319;SDS011;59599;47.608;12.190;2023-05-10T05:27:26;0.80;;;0.80;;
13319;SDS011;59599;47.608;12.190;2023-05-10T05:29:56;0.83;;;0.80;;
13319;SDS011;59599;47.608;12.190;2023-05-10T05:32:22;0.80;;;0.70;;
13319;SDS011;59599;47.608;12.190;2023-05-10T05:34:48;1.40;;;0.80;;
13319;SDS011;59599;47.608;12.190;2023-05-10T05:37:15;1.73;;;0.90;;
13319;SDS011;59599;47.608;12.190;2023-05-10T05:39:41;1.40;;;0.50;;
13319;SDS011;59599;47.608;12.190;2023-05-10T05:42:07;1.47;;;0.90;;
13319;SDS011;59599;47.608;12.190;2023-05-10T05:44:36;1.37;;;0.93;;
13319;SDS011;59599;47.608;12.190;2023-05-10T05:47:03;1.87;;;0.90;;
13319;SDS011;59599;47.608;12.190;2023-05-10T05:49:28;4.13;;;0.90;;
13319;SDS011;59599;47.608;12.190;2023-05-10T05:51:58;2.77;;;1.50;;
13319;SDS011;59599;47.608;12.190;2023-05-10T05:54:27;1.77;;;1.20;;
13319;SDS011;59599;47.608;12.190;2023-05-10T05:56:53;4.70;;;1.00;;
13319;SDS011;59599;47.608;12.190;2023-05-10T05:59:23;2.60;;;1.00;;
13319;SDS011;59599;47.608;12.190;2023-05-10T06:01:49;2.93;;;1.17;;
13319;SDS011;59599;47.608;12.190;2023-05-10T06:04:15;1.53;;;1.03;;
13319;SDS011;59599;47.608;12.190;2023-05-10T06:06:41;1.43;;;1.17;;
13319;SDS011;59599;47.608;12.190;2023-05-10T06:09:07;2.30;;;1.20;;
13319;SDS011;59599;47.608;12.190;2023-05-10T06:11:33;5.63;;;1.50;;
13319;SDS011;59599;47.608;12.190;2023-05-10T06:13:59;1.97;;;1.20;;
13319;SDS011;59599;47.608;12.190;2023-05-10T06:16:26;1.60;;;1.07;;
13319;SDS011;59599;47.608;12.190;2023-05-10T06:18:52;4.23;;;1.30;;
13319;SDS011;59599;47.608;12.190;2023-05-10T06:21:18;1.20;;;1.10;;
13319;SDS011;59599;47.608;12.190;2023-05-10T06:23:44;5.77;;;1.33;;
13319;SDS011;59599;47.608;12.190;2023-05-10T06:26:10;1.90;;;1.10;;
13319;SDS011;59599;47.608;12.190;2023-05-10T06:28:35;4.23;;;1.27;;
13319;SDS011;59599;47.608;12.190;2023-05-10T06:31:04;2.30;;;1.27;;
13319;SDS011;59599;47.608;12.190;2023-05-10T06:33:31;6.87;;;1.10;;
13319;SDS011;59599;47.608;12.190;2023-05-10T06:35:57;4.53;;;1.10;;
13319;SDS011;59599;47.608;12.190;2023-05-10T06:38:22;1.83;;;1.20;;
13319;SDS011;59599;47.608;12.190;2023-05-10T06:40:48;1.37;;;0.90;;
13319;SDS011;59599;47.608;12.190;2023-05-10T06:43:14;2.20;;;0.80;;
13319;SDS011;59599;47.608;12.190;2023-05-10T06:45:40;1.23;;;0.90;;
13319;SDS011;59599;47.608;12.190;2023-05-10T06:48:06;2.90;;;1.30;;
13319;SDS011;59599;47.608;12.190;2023-05-10T06:50:32;2.13;;;1.37;;
13319;SDS011;59599;47.608;12.190;2023-05-10T06:52:58;2.67;;;1.13;;
13319;SDS011;59599;47.608;12.190;2023-05-10T06:55:25;0.83;;;0.70;;
13319;SDS011;59599;47.608;12.190;2023-05-10T06:57:51;1.00;;;0.70;;
13319;SDS011;59599;47.608;12.190;2023-05-10T07:00:17;0.83;;;0.70;;
13319;SDS011;59599;47.608;12.190;2023-05-10T07:02:43;2.43;;;0.87;;
13319;SDS011;59599;47.608;12.190;2023-05-10T07:05:09;2.07;;;1.00;;
13319;SDS011;59599;47.608;12.190;2023-05-10T07:07:35;2.30;;;1.00;;
13319;SDS011;59599;47.608;12.190;2023-05-10T07:10:01;0.80;;;0.60;;
13319;SDS011;59599;47.608;12.190;2023-05-10T07:12:27;0.90;;;0.47;;
13319;SDS011;59599;47.608;12.190;2023-05-10T07:14:53;1.10;;;0.70;;
13319;SDS011;59599;47.608;12.190;2023-05-10T07:17:19;0.53;;;0.53;;
13319;SDS011;59599;47.608;12.190;2023-05-10T07:19:45;1.13;;;0.60;;
13319;SDS011;59599;47.608;12.190;2023-05-10T07:22:11;0.50;;;0.50;;
13319;SDS011;59599;47.608;12.190;2023-05-10T07:24:37;0.90;;;0.50;;
13319;SDS011;59599;47.608;12.190;2023-05-10T07:27:03;1.03;;;0.70;;
13319;SDS011;59599;47.608;12.190;2023-05-10T07:29:29;0.77;;;0.50;;
13319;SDS011;59599;47.608;12.190;2023-05-10T07:31:55;3.07;;;1.23;;
13319;SDS011;59599;47.608;12.190;2023-05-10T07:34:21;1.20;;;0.93;;
13319;SDS011;59599;47.608;12.190;2023-05-10T07:36:47;1.57;;;0.93;;
13319;SDS011;59599;47.608;12.190;2023-05-10T07:39:13;1.50;;;0.70;;
13319;SDS011;59599;47.608;12.190;2023-05-10T07:41:39;1.73;;;1.00;;
13319;SDS011;59599;47.608;12.190;2023-05-10T07:44:05;3.20;;;1.10;;
13319;SDS011;59599;47.608;12.190;2023-05-10T07:46:31;2.00;;;0.93;;
13319;SDS011;59599;47.608;12.190;2023-05-10T07:48:57;2.57;;;0.83;;
13319;SDS011;59599;47.608;12.190;2023-05-10T07:51:23;2.20;;;1.67;;
13319;SDS011;59599;47.608;12.190;2023-05-10T07:53:49;1.93;;;1.00;;
13319;SDS011;59599;47.608;12.190;2023-05-10T07:56:22;3.10;;;1.43;;
13319;SDS011;59599;47.608;12.190;2023-05-10T07:58:48;2.00;;;1.47;;
13319;SDS011;59599;47.608;12.190;2023-05-10T08:01:14;1.10;;;0.93;;
13319;SDS011;59599;47.608;12.190;2023-05-10T08:03:40;2.80;;;0.80;;
13319;SDS011;59599;47.608;12.190;2023-05-10T08:06:06;2.00;;;0.50;;
13319;SDS011;59599;47.608;12.190;2023-05-10T08:08:32;0.90;;;0.70;;
13319;SDS011;59599;47.608;12.190;2023-05-10T08:10:57;1.23;;;0.70;;
13319;SDS011;59599;47.608;12.190;2023-05-10T08:13:23;0.87;;;0.70;;
13319;SDS011;59599;47.608;12.190;2023-05-10T08:15:49;1.83;;;0.53;;
13319;SDS011;59599;47.608;12.190;2023-05-10T08:18:17;0.83;;;0.67;;
13319;SDS011;59599;47.608;12.190;2023-05-10T08:20:43;1.93;;;0.80;;
13319;SDS011;59599;47.608;12.190;2023-05-10T08:23:09;2.30;;;0.80;;
13319;SDS011;59599;47.608;12.190;2023-05-10T08:25:35;4.83;;;0.60;;
13319;SDS011;59599;47.608;12.190;2023-05-10T08:28:01;1.30;;;0.80;;
13319;SDS011;59599;47.608;12.190;2023-05-10T08:30:26;1.00;;;0.70;;
13319;SDS011;59599;47.608;12.190;2023-05-10T08:32:52;1.23;;;0.80;;
13319;SDS011;59599;47.608;12.190;2023-05-10T08:35:18;1.90;;;0.90;;
13319;SDS011;59599;47.608;12.190;2023-05-10T08:37:44;0.80;;;0.80;;
13319;SDS011;59599;47.608;12.190;2023-05-10T08:40:11;1.33;;;0.80;;
13319;SDS011;59599;47.608;12.190;2023-05-10T08:42:38;1.60;;;0.90;;
13319;SDS011;59599;47.608;12.190;2023-05-10T08:45:05;2.40;;;0.67;;
13319;SDS011;59599;47.608;12.190;2023-05-10T08:47:32;1.23;;;0.60;;
13319;SDS011;59599;47.608;12.190;2023-05-10T08:49:59;0.80;;;0.60;;
13319;SDS011;59599;47.608;12.190;2023-05-10T08:52:26;0.80;;;0.70;;
13319;SDS011;59599;47.608;12.190;2023-05-10T08:54:52;1.60;;;0.83;;
13319;SDS011;59599;47.608;12.190;2023-05-10T08:57:18;1.20;;;0.70;;
13319;SDS011;59599;47.608;12.190;2023-05-10T08:59:45;1.27;;;0.80;;
13319;SDS011;59599;47.608;12.190;2023-05-10T09:02:11;3.07;;;0.70;;
13319;SDS011;59599;47.608;12.190;2023-05-10T09:04:38;1.30;;;0.80;;
13319;SDS011;59599;47.608;12.190;2023-05-10T09:07:04;0.50;;;0.50;;
13319;SDS011;59599;47.608;12.190;2023-05-10T09:09:30;2.70;;;0.77;;
13319;SDS011;59599;47.608;12.190;2023-05-10T09:11:56;5.43;;;0.80;;
13319;SDS011;59599;47.608;12.190;2023-05-10T09:14:23;1.67;;;0.80;;
13319;SDS011;59599;47.608;12.190;2023-05-10T09:16:50;1.10;;;0.63;;
13319;SDS011;59599;47.608;12.190;2023-05-10T09:19:16;3.33;;;1.23;;
13319;SDS011;59599;47.608;12.190;2023-05-10T09:21:42;0.73;;;0.60;;
13319;SDS011;59599;47.608;12.190;2023-05-10T09:24:08;2.73;;;1.30;;
13319;SDS011;59599;47.608;12.190;2023-05-10T09:26:35;3.47;;;1.50;;
13319;SDS011;59599;47.608;12.190;2023-05-10T09:29:01;1.53;;;1.23;;
13319;SDS011;59599;47.608;12.190;2023-05-10T09:34:22;2.30;;;0.93;;
13319;SDS011;59599;47.608;12.190;2023-05-10T09:36:58;1.70;;;0.93;;
13319;SDS011;59599;47.608;12.190;2023-05-10T09:39:33;1.80;;;0.80;;
13319;SDS011;59599;47.608;12.190;2023-05-10T09:42:00;2.70;;;1.50;;
13319;SDS011;59599;47.608;12.190;2023-05-10T09:44:28;3.57;;;1.00;;
13319;SDS011;59599;47.608;12.190;2023-05-10T09:46:54;1.13;;;0.80;;
13319;SDS011;59599;47.608;12.190;2023-05-10T09:49:23;4.28;;;1.15;;
13319;SDS011;59599;47.608;12.190;2023-05-10T09:54:27;1.30;;;1.08;;
13319;SDS011;59599;47.608;12.190;2023-05-10T09:56:53;1.45;;;1.10;;
13319;SDS011;59599;47.608;12.190;2023-05-10T09:59:19;1.60;;;1.20;;
13319;SDS011;59599;47.608;12.190;2023-05-10T10:01:52;2.10;;;0.73;;
13319;SDS011;59599;47.608;12.190;2023-05-10T10:04:18;1.17;;;0.93;;
13319;SDS011;59599;47.608;12.190;2023-05-10T10:06:46;1.85;;;0.90;;
13319;SDS011;59599;47.608;12.190;2023-05-10T10:09:12;1.35;;;0.90;;
13319;SDS011;59599;47.608;12.190;2023-05-10T10:11:39;1.00;;;0.80;;
13319;SDS011;59599;47.608;12.190;2023-05-10T10:14:06;2.08;;;0.88;;
13319;SDS011;59599;47.608;12.190;2023-05-10T10:16:32;1.13;;;0.60;;
13319;SDS011;59599;47.608;12.190;2023-05-10T10:18:58;0.55;;;0.47;;
13319;SDS011;59599;47.608;12.190;2023-05-10T10:21:24;1.92;;;0.70;;
13319;SDS011;59599;47.608;12.190;2023-05-10T10:23:51;1.27;;;0.70;;
13319;SDS011;59599;47.608;12.190;2023-05-10T10:26:17;1.70;;;0.80;;
13319;SDS011;59599;47.608;12.190;2023-05-10T10:31:27;2.15;;;0.90;;
13319;SDS011;59599;47.608;12.190;2023-05-10T10:34:08;0.80;;;0.80;;
13319;SDS011;59599;47.608;12.190;2023-05-10T10:36:42;3.15;;;0.82;;
13319;SDS011;59599;47.608;12.190;2023-05-10T10:39:09;1.20;;;0.70;;
13319;SDS011;59599;47.608;12.190;2023-05-10T10:41:36;3.60;;;1.08;;
13319;SDS011;59599;47.608;12.190;2023-05-10T10:44:38;1.55;;;0.80;;
13319;SDS011;59599;47.608;12.190;2023-05-10T10:47:05;1.05;;;0.68;;
13319;SDS011;59599;47.608;12.190;2023-05-10T10:49:33;2.07;;;0.87;;
13319;SDS011;59599;47.608;12.190;2023-05-10T10:54:41;1.67;;;1.03;;
13319;SDS011;59599;47.608;12.190;2023-05-10T10:57:13;2.20;;;1.00;;
13319;SDS011;59599;47.608;12.190;2023-05-10T10:59:43;2.63;;;1.10;;
13319;SDS011;59599;47.608;12.190;2023-05-10T11:02:09;1.13;;;0.93;;
13319;SDS011;59599;47.608;12.190;2023-05-10T11:04:41;2.17;;;1.00;;
13319;SDS011;59599;47.608;12.190;2023-05-10T11:07:17;1.63;;;0.90;;
13319;SDS011;59599;47.608;12.190;2023-05-10T11:09:44;1.77;;;0.80;;
13319;SDS011;59599;47.608;12.190;2023-05-10T11:12:11;2.27;;;0.70;;
13319;SDS011;59599;47.608;12.190;2023-05-10T11:14:37;0.60;;;0.60;;
13319;SDS011;59599;47.608;12.190;2023-05-10T11:17:21;2.00;;;0.77;;
13319;SDS011;59599;47.608;12.190;2023-05-10T11:20:07;0.70;;;0.60;;
13319;SDS011;59599;47.608;12.190;2023-05-10T11:22:50;1.13;;;0.70;;
13319;SDS011;59599;47.608;12.190;2023-05-10T11:25:16;3.07;;;0.80;;
13319;SDS011;59599;47.608;12.190;2023-05-10T11:27:42;1.00;;;0.90;;
13319;SDS011;59599;47.608;12.190;2023-05-10T11:30:11;1.03;;;0.80;;
13319;SDS011;59599;47.608;12.190;2023-05-10T11:32:38;1.53;;;0.70;;
13319;SDS011;59599;47.608;12.190;2023-05-10T11:35:07;0.87;;;0.87;;
13319;SDS011;59599;47.608;12.190;2023-05-10T11:37:33;1.43;;;0.80;;
13319;SDS011;59599;47.608;12.190;2023-05-10T11:40:00;3.27;;;0.90;;
13319;SDS011;59599;47.608;12.190;2023-05-10T11:42:27;1.37;;;1.00;;
13319;SDS011;59599;47.608;12.190;2023-05-10T11:44:53;2.13;;;1.10;;
13319;SDS011;59599;47.608;12.190;2023-05-10T11:47:19;4.40;;;1.47;;
13319;SDS011;59599;47.608;12.190;2023-05-10T11:49:45;2.17;;;1.30;;
13319;SDS011;59599;47.608;12.190;2023-05-10T11:52:11;1.53;;;1.00;;
13319;SDS011;59599;47.608;12.190;2023-05-10T11:54:37;2.07;;;0.90;;
13319;SDS011;59599;47.608;12.190;2023-05-10T11:57:03;0.90;;;0.70;;
13319;SDS011;59599;47.608;12.190;2023-05-10T11:59:29;0.80;;;0.70;;
13319;SDS011;59599;47.608;12.190;2023-05-10T12:01:55;2.17;;;0.90;;
13319;SDS011;59599;47.608;12.190;2023-05-10T12:04:21;2.60;;;1.00;;
13319;SDS011;59599;47.608;12.190;2023-05-10T12:06:47;1.77;;;1.07;;
13319;SDS011;59599;47.608;12.190;2023-05-10T12:09:13;3.97;;;0.90;;
13319;SDS011;59599;47.608;12.190;2023-05-10T12:11:40;2.53;;;1.13;;
13319;SDS011;59599;47.608;12.190;2023-05-10T12:14:06;1.83;;;1.00;;
13319;SDS011;59599;47.608;12.190;2023-05-10T12:16:33;3.07;;;0.90;;
13319;SDS011;59599;47.608;12.190;2023-05-10T12:18:59;2.00;;;0.77;;
13319;SDS011;59599;47.608;12.190;2023-05-10T12:21:26;0.93;;;0.70;;
13319;SDS011;59599;47.608;12.190;2023-05-10T12:23:54;3.50;;;0.73;;
13319;SDS011;59599;47.608;12.190;2023-05-10T12:26:24;1.00;;;0.70;;
13319;SDS011;59599;47.608;12.190;2023-05-10T12:28:51;2.72;;;0.90;;
13319;SDS011;59599;47.608;12.190;2023-05-10T12:31:17;0.60;;;0.60;;
13319;SDS011;59599;47.608;12.190;2023-05-10T12:33:43;2.47;;;0.85;;
13319;SDS011;59599;47.608;12.190;2023-05-10T12:36:11;0.70;;;0.70;;
13319;SDS011;59599;47.608;12.190;2023-05-10T12:38:38;0.87;;;0.70;;
13319;SDS011;59599;47.608;12.190;2023-05-10T12:41:07;1.88;;;0.73;;
13319;SDS011;59599;47.608;12.190;2023-05-10T12:43:34;1.08;;;0.70;;
13319;SDS011;59599;47.608;12.190;2023-05-10T12:46:10;1.75;;;1.05;;
13319;SDS011;59599;47.608;12.190;2023-05-10T12:48:36;1.08;;;0.65;;
13319;SDS011;59599;47.608;12.190;2023-05-10T12:51:03;0.70;;;0.70;;
13319;SDS011;59599;47.608;12.190;2023-05-10T12:53:29;1.73;;;0.65;;
13319;SDS011;59599;47.608;12.190;2023-05-10T12:55:55;1.58;;;0.65;;
13319;SDS011;59599;47.608;12.190;2023-05-10T12:58:21;0.63;;;0.57;;
13319;SDS011;59599;47.608;12.190;2023-05-10T13:00:47;1.15;;;0.60;;
13319;SDS011;59599;47.608;12.190;2023-05-10T13:03:13;1.23;;;0.65;;
13319;SDS011;59599;47.608;12.190;2023-05-10T13:05:40;1.42;;;0.63;;
13319;SDS011;59599;47.608;12.190;2023-05-10T13:08:06;3.65;;;0.70;;
13319;SDS011;59599;47.608;12.190;2023-05-10T13:10:32;0.80;;;0.70;;
13319;SDS011;59599;47.608;12.190;2023-05-10T13:12:58;0.60;;;0.50;;
13319;SDS011;59599;47.608;12.190;2023-05-10T13:15:25;0.55;;;0.55;;
13319;SDS011;59599;47.608;12.190;2023-05-10T13:17:51;0.95;;;0.43;;
13319;SDS011;59599;47.608;12.190;2023-05-10T13:20:17;0.52;;;0.52;;
13319;SDS011;59599;47.608;12.190;2023-05-10T13:22:43;1.00;;;0.70;;
13319;SDS011;59599;47.608;12.190;2023-05-10T13:25:09;0.70;;;0.55;;
13319;SDS011;59599;47.608;12.190;2023-05-10T13:27:35;1.77;;;0.70;;
13319;SDS011;59599;47.608;12.190;2023-05-10T13:30:02;1.75;;;0.60;;
13319;SDS011;59599;47.608;12.190;2023-05-10T13:32:28;1.08;;;0.55;;
13319;SDS011;59599;47.608;12.190;2023-05-10T13:34:55;0.77;;;0.60;;
13319;SDS011;59599;47.608;12.190;2023-05-10T13:37:21;1.40;;;0.80;;
13319;SDS011;59599;47.608;12.190;2023-05-10T13:39:47;1.45;;;0.90;;
13319;SDS011;59599;47.608;12.190;2023-05-10T13:42:13;1.08;;;0.70;;
13319;SDS011;59599;47.608;12.190;2023-05-10T13:44:39;0.95;;;0.88;;
13319;SDS011;59599;47.608;12.190;2023-05-10T13:47:05;0.80;;;0.63;;
13319;SDS011;59599;47.608;12.190;2023-05-10T13:49:31;0.70;;;0.70;;
13319;SDS011;59599;47.608;12.190;2023-05-10T13:51:58;1.55;;;1.08;;
13319;SDS011;59599;47.608;12.190;2023-05-10T13:54:26;2.35;;;1.60;;
13319;SDS011;59599;47.608;12.190;2023-05-10T13:56:54;1.60;;;1.50;;
13319;SDS011;59599;47.608;12.190;2023-05-10T13:59:20;1.33;;;1.20;;
13319;SDS011;59599;47.608;12.190;2023-05-10T14:01:46;1.87;;;1.40;;
13319;SDS011;59599;47.608;12.190;2023-05-10T14:04:12;2.00;;;1.23;;
13319;SDS011;59599;47.608;12.190;2023-05-10T14:06:38;0.65;;;0.65;;
13319;SDS011;59599;47.608;12.190;2023-05-10T14:09:04;1.20;;;1.10;;
13319;SDS011;59599;47.608;12.190;2023-05-10T14:11:30;3.37;;;2.30;;
13319;SDS011;59599;47.608;12.190;2023-05-10T14:13:56;1.93;;;1.30;;
13319;SDS011;59599;47.608;12.190;2023-05-10T14:16:22;2.07;;;1.30;;
13319;SDS011;59599;47.608;12.190;2023-05-10T14:18:48;2.53;;;1.77;;
13319;SDS011;59599;47.608;12.190;2023-05-10T14:21:14;2.90;;;1.30;;
13319;SDS011;59599;47.608;12.190;2023-05-10T14:23:40;1.90;;;1.00;;
13319;SDS011;59599;47.608;12.190;2023-05-10T14:26:05;0.97;;;0.83;;
13319;SDS011;59599;47.608;12.190;2023-05-10T14:28:31;1.27;;;0.97;;
13319;SDS011;59599;47.608;12.190;2023-05-10T14:30:57;1.17;;;0.83;;
13319;SDS011;59599;47.608;12.190;2023-05-10T14:33:23;2.77;;;0.80;;
13319;SDS011;59599;47.608;12.190;2023-05-10T14:35:49;5.20;;;3.47;;
13319;SDS011;59599;47.608;12.190;2023-05-10T14:38:15;4.23;;;1.90;;
13319;SDS011;59599;47.608;12.190;2023-05-10T14:40:41;2.83;;;1.60;;
13319;SDS011;59599;47.608;12.190;2023-05-10T14:43:07;2.40;;;1.03;;
13319;SDS011;59599;47.608;12.190;2023-05-10T14:45:33;3.27;;;0.93;;
13319;SDS011;59599;47.608;12.190;2023-05-10T14:47:59;1.83;;;0.97;;
13319;SDS011;59599;47.608;12.190;2023-05-10T14:50:25;1.37;;;1.00;;
13319;SDS011;59599;47.608;12.190;2023-05-10T14:52:51;2.47;;;0.93;;
13319;SDS011;59599;47.608;12.190;2023-05-10T14:55:17;1.63;;;0.90;;
13319;SDS011;59599;47.608;12.190;2023-05-10T14:57:43;1.60;;;1.20;;
13319;SDS011;59599;47.608;12.190;2023-05-10T15:00:11;3.73;;;1.03;;
13319;SDS011;59599;47.608;12.190;2023-05-10T15:02:37;1.63;;;0.80;;
13319;SDS011;59599;47.608;12.190;2023-05-10T15:05:03;0.40;;;0.40;;
13319;SDS011;59599;47.608;12.190;2023-05-10T15:07:29;0.60;;;0.60;;
13319;SDS011;59599;47.608;12.190;2023-05-10T15:09:56;2.00;;;0.83;;
13319;SDS011;59599;47.608;12.190;2023-05-10T15:12:22;0.57;;;0.53;;
13319;SDS011;59599;47.608;12.190;2023-05-10T15:14:48;6.23;;;0.80;;
13319;SDS011;59599;47.608;12.190;2023-05-10T15:17:14;1.30;;;0.60;;
13319;SDS011;59599;47.608;12.190;2023-05-10T15:19:41;1.23;;;0.63;;
13319;SDS011;59599;47.608;12.190;2023-05-10T15:22:07;0.90;;;0.90;;
13319;SDS011;59599;47.608;12.190;2023-05-10T15:24:32;6.93;;;4.10;;
13319;SDS011;59599;47.608;12.190;2023-05-10T15:26:58;3.40;;;1.53;;
13319;SDS011;59599;47.608;12.190;2023-05-10T15:29:24;1.30;;;1.10;;
13319;SDS011;59599;47.608;12.190;2023-05-10T15:31:50;0.50;;;0.50;;
13319;SDS011;59599;47.608;12.190;2023-05-10T15:34:16;2.10;;;0.70;;
13319;SDS011;59599;47.608;12.190;2023-05-10T15:36:42;1.90;;;0.70;;
13319;SDS011;59599;47.608;12.190;2023-05-10T15:39:09;2.33;;;0.80;;
13319;SDS011;59599;47.608;12.190;2023-05-10T15:41:35;0.67;;;0.60;;
13319;SDS011;59599;47.608;12.190;2023-05-10T15:44:01;1.83;;;0.70;;
13319;SDS011;59599;47.608;12.190;2023-05-10T15:46:27;1.17;;;1.00;;
13319;SDS011;59599;47.608;12.190;2023-05-10T15:48:53;1.03;;;0.90;;
13319;SDS011;59599;47.608;12.190;2023-05-10T15:51:19;2.73;;;1.57;;
13319;SDS011;59599;47.608;12.190;2023-05-10T15:53:45;1.60;;;1.20;;
13319;SDS011;59599;47.608;12.190;2023-05-10T15:56:11;6.83;;;2.30;;
13319;SDS011;59599;47.608;12.190;2023-05-10T15:58:37;3.80;;;2.13;;
13319;SDS011;59599;47.608;12.190;2023-05-10T16:01:03;3.10;;;1.70;;
13319;SDS011;59599;47.608;12.190;2023-05-10T16:03:32;2.20;;;1.30;;
13319;SDS011;59599;47.608;12.190;2023-05-10T16:05:58;2.10;;;1.10;;
13319;SDS011;59599;47.608;12.190;2023-05-10T16:08:24;1.27;;;0.87;;
13319;SDS011;59599;47.608;12.190;2023-05-10T16:10:50;0.83;;;0.57;;
13319;SDS011;59599;47.608;12.190;2023-05-10T16:13:16;1.60;;;0.90;;
13319;SDS011;59599;47.608;12.190;2023-05-10T16:15:42;1.33;;;0.80;;
13319;SDS011;59599;47.608;12.190;2023-05-10T16:18:07;1.73;;;0.90;;
13319;SDS011;59599;47.608;12.190;2023-05-10T16:20:33;1.13;;;0.70;;
13319;SDS011;59599;47.608;12.190;2023-05-10T16:23:01;1.30;;;0.80;;
13319;SDS011;59599;47.608;12.190;2023-05-10T16:25:27;1.30;;;1.10;;
13319;SDS011;59599;47.608;12.190;2023-05-10T16:27:53;2.57;;;1.67;;
13319;SDS011;59599;47.608;12.190;2023-05-10T16:30:19;2.90;;;1.10;;
13319;SDS011;59599;47.608;12.190;2023-05-10T16:32:45;3.30;;;1.10;;
13319;SDS011;59599;47.608;12.190;2023-05-10T16:35:12;2.67;;;1.47;;
13319;SDS011;59599;47.608;12.190;2023-05-10T16:37:38;3.40;;;1.80;;
13319;SDS011;59599;47.608;12.190;2023-05-10T16:40:04;1.77;;;1.60;;
13319;SDS011;59599;47.608;12.190;2023-05-10T16:42:30;2.47;;;1.50;;
13319;SDS011;59599;47.608;12.190;2023-05-10T16:44:56;2.77;;;1.40;;
13319;SDS011;59599;47.608;12.190;2023-05-10T16:47:22;2.33;;;1.50;;
13319;SDS011;59599;47.608;12.190;2023-05-10T16:49:50;3.07;;;1.70;;
13319;SDS011;59599;47.608;12.190;2023-05-10T16:52:16;3.27;;;2.50;;
13319;SDS011;59599;47.608;12.190;2023-05-10T16:54:42;3.73;;;2.30;;
13319;SDS011;59599;47.608;12.190;2023-05-10T16:57:08;3.90;;;2.10;;
13319;SDS011;59599;47.608;12.190;2023-05-10T16:59:34;2.40;;;2.00;;
13319;SDS011;59599;47.608;12.190;2023-05-10T17:02:00;2.50;;;2.30;;
13319;SDS011;59599;47.608;12.190;2023-05-10T17:04:26;2.33;;;1.70;;
13319;SDS011;59599;47.608;12.190;2023-05-10T17:06:52;2.73;;;1.20;;
13319;SDS011;59599;47.608;12.190;2023-05-10T17:09:18;1.00;;;0.97;;
13319;SDS011;59599;47.608;12.190;2023-05-10T17:11:44;2.67;;;0.80;;
13319;SDS011;59599;47.608;12.190;2023-05-10T17:14:11;2.07;;;1.20;;
13319;SDS011;59599;47.608;12.190;2023-05-10T17:16:37;2.20;;;1.00;;
13319;SDS011;59599;47.608;12.190;2023-05-10T17:19:03;2.23;;;0.73;;
13319;SDS011;59599;47.608;12.190;2023-05-10T17:21:29;1.90;;;0.80;;
13319;SDS011;59599;47.608;12.190;2023-05-10T17:23:55;0.63;;;0.60;;
13319;SDS011;59599;47.608;12.190;2023-05-10T17:26:21;1.10;;;0.60;;
13319;SDS011;59599;47.608;12.190;2023-05-10T17:28:47;0.83;;;0.80;;
13319;SDS011;59599;47.608;12.190;2023-05-10T17:31:13;2.50;;;0.80;;
13319;SDS011;59599;47.608;12.190;2023-05-10T17:33:39;3.47;;;1.00;;
13319;SDS011;59599;47.608;12.190;2023-05-10T17:36:05;3.33;;;1.40;;
13319;SDS011;59599;47.608;12.190;2023-05-10T17:38:31;3.40;;;1.53;;
13319;SDS011;59599;47.608;12.190;2023-05-10T17:40:57;5.27;;;1.33;;
13319;SDS011;59599;47.608;12.190;2023-05-10T17:43:23;4.23;;;1.40;;
13319;SDS011;59599;47.608;12.190;2023-05-10T17:45:50;4.07;;;1.63;;
13319;SDS011;59599;47.608;12.190;2023-05-10T17:48:15;1.37;;;1.23;;
13319;SDS011;59599;47.608;12.190;2023-05-10T17:50:41;1.67;;;1.00;;
13319;SDS011;59599;47.608;12.190;2023-05-10T17:53:08;1.63;;;0.70;;
13319;SDS011;59599;47.608;12.190;2023-05-10T17:55:33;1.53;;;1.20;;
13319;SDS011;59599;47.608;12.190;2023-05-10T17:57:59;0.70;;;0.43;;
13319;SDS011;59599;47.608;12.190;2023-05-10T18:00:26;0.53;;;0.33;;
13319;SDS011;59599;47.608;12.190;2023-05-10T18:02:52;1.07;;;0.80;;
13319;SDS011;59599;47.608;12.190;2023-05-10T18:05:18;3.40;;;1.57;;
13319;SDS011;59599;47.608;12.190;2023-05-10T18:07:44;3.53;;;2.33;;
13319;SDS011;59599;47.608;12.190;2023-05-10T18:10:10;5.00;;;2.80;;
13319;SDS011;59599;47.608;12.190;2023-05-10T18:12:36;6.73;;;3.50;;
13319;SDS011;59599;47.608;12.190;2023-05-10T18:15:02;4.90;;;2.40;;
13319;SDS011;59599;47.608;12.190;2023-05-10T18:17:27;10.60;;;7.17;;
13319;SDS011;59599;47.608;12.190;2023-05-10T18:19:53;5.83;;;4.30;;
13319;SDS011;59599;47.608;12.190;2023-05-10T18:22:19;3.77;;;3.20;;
13319;SDS011;59599;47.608;12.190;2023-05-10T18:24:45;4.33;;;2.30;;
13319;SDS011;59599;47.608;12.190;2023-05-10T18:27:11;2.03;;;1.50;;
13319;SDS011;59599;47.608;12.190;2023-05-10T18:29:37;3.03;;;1.50;;
13319;SDS011;59599;47.608;12.190;2023-05-10T18:32:03;1.40;;;1.30;;
13319;SDS011;59599;47.608;12.190;2023-05-10T18:34:29;1.97;;;1.40;;
13319;SDS011;59599;47.608;12.190;2023-05-10T18:36:55;1.20;;;1.10;;
13319;SDS011;59599;47.608;12.190;2023-05-10T18:39:21;0.50;;;0.50;;
13319;SDS011;59599;47.608;12.190;2023-05-10T18:41:47;1.13;;;0.40;;